createdAt,value
2023-05-12T00:00:12.988Z,67.03
2023-05-12T00:02:39.991Z,67.07
2023-05-12T00:05:07.361Z,66.91
2023-05-12T00:07:34.404Z,66.90
2023-05-12T00:10:01.283Z,66.91
2023-05-12T00:12:28.156Z,67.07
2023-05-12T00:14:55.129Z,67.17
2023-05-12T00:17:22.158Z,67.00
2023-05-12T00:19:49.007Z,67.03
2023-05-12T00:22:16.930Z,67.20
2023-05-12T00:24:43.804Z,67.03
2023-05-12T00:27:10.590Z,67.13
2023-05-12T00:29:37.471Z,66.98
2023-05-12T00:32:04.566Z,67.02
2023-05-12T00:34:31.361Z,66.99
2023-05-12T00:36:58.201Z,67.11
2023-05-12T00:39:25.023Z,67.20
2023-05-12T00:42:06.846Z,67.30
2023-05-12T00:44:33.795Z,67.19
2023-05-12T00:47:00.594Z,67.24
2023-05-12T00:49:27.754Z,67.25
2023-05-12T00:51:55.827Z,67.21
2023-05-12T00:54:23.146Z,67.12
2023-05-12T00:56:50.141Z,67.36
2023-05-12T00:59:16.909Z,67.19
2023-05-12T01:01:44.172Z,67.17
2023-05-12T01:04:11.144Z,67.16
2023-05-12T01:06:51.514Z,67.11
2023-05-12T01:09:19.006Z,67.31
2023-05-12T01:11:45.788Z,67.18
2023-05-12T01:14:12.580Z,67.31
2023-05-12T01:17:11.415Z,67.41
2023-05-12T01:19:49.752Z,67.18
2023-05-12T01:22:18.106Z,66.94
2023-05-12T01:24:55.904Z,67.08
2023-05-12T01:27:28.407Z,67.24
2023-05-12T01:29:59.426Z,67.05
2023-05-12T01:32:26.743Z,67.53
2023-05-12T01:34:53.535Z,67.36
2023-05-12T01:37:20.653Z,67.38
2023-05-12T01:39:47.549Z,67.22
2023-05-12T01:42:14.406Z,67.33
2023-05-12T01:44:41.232Z,67.19
2023-05-12T01:47:09.960Z,67.31
2023-05-12T01:49:37.750Z,67.19
2023-05-12T01:52:05.014Z,67.05
2023-05-12T01:54:31.780Z,67.03
2023-05-12T01:56:58.545Z,67.31
2023-05-12T01:59:25.373Z,67.47
2023-05-12T02:01:52.232Z,67.35
2023-05-12T02:04:19.075Z,67.30
2023-05-12T02:06:45.938Z,67.28
2023-05-12T02:09:13.219Z,67.09
2023-05-12T02:11:40.123Z,67.51
2023-05-12T02:14:06.907Z,67.27
2023-05-12T02:16:33.714Z,67.12
2023-05-12T02:19:00.609Z,67.16
2023-05-12T02:21:28.003Z,67.15
2023-05-12T02:23:56.139Z,67.17
2023-05-12T02:26:22.981Z,67.17
2023-05-12T02:28:49.758Z,67.33
2023-05-12T02:31:16.704Z,67.03
2023-05-12T02:33:43.496Z,67.27
2023-05-12T02:36:10.275Z,67.42
2023-05-12T02:38:37.042Z,67.47
2023-05-12T02:41:03.818Z,67.34
2023-05-12T02:43:30.603Z,67.60
2023-05-12T02:45:57.418Z,67.49
2023-05-12T02:48:24.232Z,67.48
2023-05-12T02:50:51.082Z,67.46
2023-05-12T02:53:17.860Z,67.63
2023-05-12T02:55:44.665Z,67.58
2023-05-12T02:58:11.544Z,67.71
2023-05-12T03:00:38.314Z,67.80
2023-05-12T03:03:05.276Z,67.75
2023-05-12T03:05:32.074Z,67.58
2023-05-12T03:07:58.987Z,67.53
2023-05-12T03:10:25.961Z,67.62
2023-05-12T03:12:52.753Z,67.77
2023-05-12T03:15:19.554Z,67.88
2023-05-12T03:17:46.345Z,68.07
2023-05-12T03:20:13.236Z,67.79
2023-05-12T03:22:40.035Z,67.83
2023-05-12T03:25:10.112Z,67.87
2023-05-12T03:27:36.877Z,67.66
2023-05-12T03:30:05.567Z,67.89
2023-05-12T03:32:32.377Z,68.09
2023-05-12T03:34:59.155Z,67.75
2023-05-12T03:37:26.298Z,67.82
2023-05-12T03:39:55.990Z,67.71
2023-05-12T03:42:24.012Z,67.87
2023-05-12T03:44:54.085Z,67.89
2023-05-12T03:47:20.976Z,67.79
2023-05-12T03:49:47.803Z,67.83
2023-05-12T03:52:14.849Z,67.59
2023-05-12T03:54:41.596Z,67.97
2023-05-12T03:57:08.376Z,67.63
2023-05-12T03:59:35.273Z,67.44
2023-05-12T04:02:02.193Z,67.43
2023-05-12T04:04:29.077Z,67.39
2023-05-12T04:06:56.200Z,67.47
2023-05-12T04:09:22.996Z,67.30
2023-05-12T04:11:49.822Z,67.22
2023-05-12T04:14:16.566Z,67.35
2023-05-12T04:16:43.366Z,67.30
2023-05-12T04:19:10.240Z,67.28
2023-05-12T04:21:37.009Z,67.07
2023-05-12T04:24:04.084Z,67.10
2023-05-12T04:26:30.826Z,66.73
2023-05-12T04:28:57.583Z,66.94
2023-05-12T04:31:24.438Z,66.74
2023-05-12T04:33:51.851Z,66.67
2023-05-12T04:36:18.609Z,66.62
2023-05-12T04:38:45.725Z,66.49
2023-05-12T04:41:12.530Z,66.41
2023-05-12T04:46:09.072Z,66.28
2023-05-12T04:48:41.732Z,66.25
2023-05-12T04:51:08.887Z,66.33
2023-05-12T04:53:36.225Z,66.08
2023-05-12T04:56:03.801Z,65.82
2023-05-12T04:58:30.603Z,65.75
2023-05-12T05:00:57.497Z,65.84
2023-05-12T05:03:24.645Z,66.20
2023-05-12T05:05:51.521Z,65.79
2023-05-12T05:08:18.479Z,65.53
2023-05-12T05:10:45.369Z,65.27
2023-05-12T05:13:12.204Z,65.39
2023-05-12T05:15:39.022Z,65.21
2023-05-12T05:18:05.986Z,65.09
2023-05-12T05:20:34.323Z,64.55
2023-05-12T05:23:01.285Z,64.67
2023-05-12T05:25:28.089Z,64.65
2023-05-12T05:27:55.692Z,64.80
2023-05-12T05:30:22.499Z,64.79
2023-05-12T05:32:49.418Z,64.67
2023-05-12T05:35:16.671Z,64.63
2023-05-12T05:37:43.547Z,64.85
2023-05-12T05:40:10.555Z,64.60
2023-05-12T05:42:37.529Z,64.40
2023-05-12T05:45:04.847Z,64.42
2023-05-12T05:47:32.209Z,64.10
2023-05-12T05:49:59.105Z,63.67
2023-05-12T05:52:25.953Z,63.61
2023-05-12T05:54:52.938Z,63.85
2023-05-12T05:57:19.749Z,63.55
2023-05-12T05:59:46.942Z,63.34
2023-05-12T06:02:14.004Z,63.41
2023-05-12T06:04:40.785Z,63.21
2023-05-12T06:07:07.625Z,63.43
2023-05-12T06:09:34.404Z,63.45
2023-05-12T06:12:01.247Z,63.22
2023-05-12T06:14:28.089Z,63.44
2023-05-12T06:16:54.989Z,63.35
2023-05-12T06:19:21.799Z,63.01
2023-05-12T06:21:48.579Z,62.63
2023-05-12T06:24:15.360Z,62.61
2023-05-12T06:26:42.126Z,62.74
2023-05-12T06:29:09.006Z,62.87
2023-05-12T06:31:35.974Z,62.70
2023-05-12T06:34:03.152Z,62.75
2023-05-12T06:36:30.454Z,62.32
2023-05-12T06:38:57.348Z,62.16
2023-05-12T06:41:25.227Z,62.17
2023-05-12T06:43:52.257Z,62.03
2023-05-12T06:46:19.219Z,62.59
2023-05-12T06:48:46.282Z,62.22
2023-05-12T06:51:13.561Z,62.06
2023-05-12T06:53:43.581Z,62.00
2023-05-12T06:56:14.306Z,62.34
2023-05-12T06:58:41.078Z,61.99
2023-05-12T07:01:07.989Z,62.18
2023-05-12T07:03:34.957Z,62.16
2023-05-12T07:06:01.837Z,61.72
2023-05-12T07:08:28.752Z,61.68
2023-05-12T07:10:55.677Z,62.09
2023-05-12T07:13:22.716Z,62.28
2023-05-12T07:15:49.637Z,62.09
2023-05-12T07:18:16.644Z,61.40
2023-05-12T07:20:43.955Z,61.52
2023-05-12T07:23:10.780Z,60.70
2023-05-12T07:25:37.901Z,60.49
2023-05-12T07:28:05.368Z,60.57
2023-05-12T07:30:32.245Z,60.19
2023-05-12T07:33:01.113Z,60.63
2023-05-12T07:35:28.161Z,60.49
2023-05-12T07:37:55.085Z,59.97
2023-05-12T07:40:22.057Z,59.30
2023-05-12T07:42:48.926Z,59.92
2023-05-12T07:45:22.870Z,59.35
2023-05-12T07:47:50.930Z,60.01
2023-05-12T07:50:18.760Z,60.24
2023-05-12T07:52:52.986Z,60.21
2023-05-12T07:55:22.167Z,60.11
2023-05-12T07:57:52.379Z,59.49
2023-05-12T08:00:19.428Z,60.29
2023-05-12T08:02:47.217Z,59.71
2023-05-12T08:05:14.652Z,59.74
2023-05-12T08:07:43.612Z,59.32
2023-05-12T08:10:12.914Z,59.22
2023-05-12T08:12:41.058Z,59.10
2023-05-12T08:15:09.436Z,58.86
2023-05-12T08:17:36.284Z,59.50
2023-05-12T08:20:06.702Z,59.72
2023-05-12T08:22:33.898Z,59.91
2023-05-12T08:25:00.669Z,58.84
2023-05-12T08:27:27.551Z,58.84
2023-05-12T08:29:54.348Z,59.12
2023-05-12T08:32:21.202Z,59.21
2023-05-12T08:34:53.159Z,59.70
2023-05-12T08:37:20.751Z,59.34
2023-05-12T08:39:47.640Z,59.39
2023-05-12T08:42:50.198Z,59.83
2023-05-12T08:45:17.983Z,59.61
2023-05-12T08:47:45.996Z,59.48
2023-05-12T08:50:14.386Z,59.59
2023-05-12T08:52:41.423Z,58.89
2023-05-12T08:55:09.933Z,58.72
2023-05-12T08:57:39.495Z,58.36
2023-05-12T09:00:08.953Z,57.85
2023-05-12T09:02:52.193Z,57.93
2023-05-12T09:05:20.576Z,59.59
2023-05-12T09:07:49.678Z,59.10
2023-05-12T09:10:32.748Z,58.60
2023-05-12T09:13:20.603Z,59.00
2023-05-12T09:15:48.841Z,58.09
2023-05-12T09:18:16.107Z,57.57
2023-05-12T09:20:43.145Z,56.81
2023-05-12T09:23:28.291Z,56.78
2023-05-12T09:26:01.505Z,56.18
2023-05-12T09:28:36.731Z,55.47
2023-05-12T09:31:24.167Z,55.99
2023-05-12T09:33:52.024Z,55.91
2023-05-12T09:36:21.527Z,55.47
2023-05-12T09:39:07.118Z,55.72
2023-05-12T09:41:42.904Z,56.02
2023-05-12T09:44:10.970Z,56.43
2023-05-12T09:46:39.805Z,56.36
2023-05-12T09:49:06.793Z,56.18
2023-05-12T09:51:33.873Z,54.93
2023-05-12T09:54:01.069Z,54.62
2023-05-12T09:56:29.647Z,53.50
2023-05-12T09:58:57.461Z,53.43
2023-05-12T10:01:25.640Z,53.35
2023-05-12T10:03:57.585Z,52.83
2023-05-12T10:06:36.518Z,52.61
2023-05-12T10:09:21.958Z,52.59
2023-05-12T10:11:53.502Z,51.57
2023-05-12T10:14:22.960Z,51.18
2023-05-12T10:16:51.193Z,51.16
2023-05-12T10:19:19.215Z,50.88
2023-05-12T10:21:47.145Z,50.74
2023-05-12T10:24:17.662Z,50.97
2023-05-12T10:26:44.856Z,49.80
2023-05-12T10:29:12.748Z,48.51
2023-05-12T10:31:40.060Z,49.04
2023-05-12T10:34:07.356Z,49.79
2023-05-12T10:36:49.732Z,49.71
2023-05-12T10:39:16.970Z,49.75
2023-05-12T10:41:43.923Z,48.81
2023-05-12T10:44:10.876Z,49.40
2023-05-12T10:46:37.803Z,49.26
2023-05-12T10:49:10.140Z,48.10
2023-05-12T10:51:43.014Z,47.83
2023-05-12T10:54:13.152Z,46.96
2023-05-12T10:56:40.289Z,47.40
2023-05-12T10:59:23.643Z,47.04
2023-05-12T11:01:58.921Z,47.38
2023-05-12T11:04:46.640Z,46.70
2023-05-12T11:07:17.008Z,46.71
2023-05-12T11:12:16.088Z,46.78
2023-05-12T11:14:45.454Z,46.21
2023-05-12T11:17:12.760Z,46.70
2023-05-12T11:19:40.180Z,44.74
2023-05-12T11:22:12.269Z,44.75
2023-05-12T11:24:41.340Z,44.86
2023-05-12T11:27:14.708Z,44.68
2023-05-12T11:29:43.383Z,44.81
2023-05-12T11:32:12.471Z,45.17
2023-05-12T11:34:39.549Z,45.04
2023-05-12T11:37:08.960Z,43.88
2023-05-12T11:39:36.452Z,44.36
2023-05-12T11:42:12.205Z,44.56
2023-05-12T11:44:50.037Z,44.01
2023-05-12T11:47:21.795Z,43.55
2023-05-12T11:49:55.088Z,42.88
2023-05-12T11:52:24.306Z,43.78
2023-05-12T11:55:00.843Z,44.23
2023-05-12T11:57:32.655Z,43.21
2023-05-12T12:00:05.603Z,43.55
2023-05-12T12:02:33.363Z,44.27
2023-05-12T12:05:00.803Z,44.87
2023-05-12T12:07:35.322Z,44.71
2023-05-12T12:10:12.916Z,47.72
2023-05-12T12:12:41.258Z,45.96
2023-05-12T12:15:09.899Z,44.29
2023-05-12T12:17:37.331Z,42.99
2023-05-12T12:20:04.455Z,42.98
2023-05-12T12:22:34.129Z,42.33
2023-05-12T12:25:02.767Z,42.19
2023-05-12T12:27:29.713Z,42.28
2023-05-12T12:29:56.608Z,41.46
2023-05-12T12:32:23.651Z,40.75
2023-05-12T12:34:50.572Z,40.45
2023-05-12T12:37:17.636Z,39.26
2023-05-12T12:39:44.596Z,39.70
2023-05-12T12:42:11.489Z,38.47
2023-05-12T12:44:38.342Z,38.47
2023-05-12T12:47:05.489Z,38.06
2023-05-12T12:49:32.352Z,37.27
2023-05-12T12:51:59.213Z,37.01
2023-05-12T12:54:27.375Z,37.08
2023-05-12T12:56:55.603Z,37.36
2023-05-12T12:59:23.295Z,37.65
2023-05-12T13:01:50.346Z,38.31
2023-05-12T13:04:22.102Z,37.63
2023-05-12T13:06:49.405Z,37.02
2023-05-12T13:09:19.538Z,36.86
2023-05-12T13:11:47.653Z,36.81
2023-05-12T13:14:14.673Z,37.21
2023-05-12T13:16:41.857Z,37.12
2023-05-12T13:19:09.020Z,36.97
2023-05-12T13:21:35.915Z,36.59
2023-05-12T13:24:02.793Z,35.85
2023-05-12T13:26:29.685Z,36.76
2023-05-12T13:28:56.437Z,36.42
2023-05-12T13:31:23.463Z,35.38
2023-05-12T13:33:50.499Z,35.77
2023-05-12T13:36:17.609Z,35.40
2023-05-12T13:38:45.730Z,35.91
2023-05-12T13:41:12.543Z,37.26
2023-05-12T13:43:39.324Z,35.74
2023-05-12T13:46:06.192Z,34.79
2023-05-12T13:48:33.004Z,33.91
2023-05-12T13:51:02.240Z,34.17
2023-05-12T13:53:32.205Z,33.21
2023-05-12T13:55:59.034Z,33.42
2023-05-12T13:58:26.022Z,33.77
2023-05-12T14:00:55.876Z,33.47
2023-05-12T14:03:22.673Z,33.56
2023-05-12T14:05:52.497Z,33.68
2023-05-12T14:08:22.341Z,33.36
2023-05-12T14:10:49.158Z,33.52
2023-05-12T14:13:16.192Z,33.81
2023-05-12T14:15:49.343Z,33.06
2023-05-12T14:18:17.023Z,32.67
2023-05-12T14:20:43.907Z,33.23
2023-05-12T14:23:10.646Z,32.60
2023-05-12T14:25:37.529Z,33.25
2023-05-12T14:28:04.432Z,33.22
2023-05-12T14:30:31.416Z,33.38
2023-05-12T14:32:58.401Z,33.01
2023-05-12T14:35:27.477Z,33.08
2023-05-12T14:37:55.284Z,33.16
2023-05-12T14:40:23.081Z,32.78
2023-05-12T14:42:49.852Z,32.93
2023-05-12T14:45:16.721Z,32.42
2023-05-12T14:47:43.653Z,32.76
2023-05-12T14:50:11.212Z,32.90
2023-05-12T14:52:40.542Z,32.69
2023-05-12T14:55:12.414Z,32.20
2023-05-12T14:57:40.872Z,32.80
2023-05-12T15:00:13.466Z,31.97
2023-05-12T15:02:43.859Z,32.67
2023-05-12T15:05:13.448Z,33.05
2023-05-12T15:07:40.877Z,33.18
2023-05-12T15:10:08.262Z,32.44
2023-05-12T15:12:35.202Z,32.52
2023-05-12T15:15:04.664Z,32.58
2023-05-12T15:17:32.235Z,33.01
2023-05-12T15:19:59.154Z,32.97
2023-05-12T15:22:26.260Z,33.30
2023-05-12T15:24:53.339Z,33.28
2023-05-12T15:27:24.928Z,32.84
2023-05-12T15:29:53.693Z,33.56
2023-05-12T15:32:20.539Z,33.47
2023-05-12T15:34:47.323Z,33.61
2023-05-12T15:37:14.172Z,33.27
2023-05-12T15:39:40.947Z,33.31
2023-05-12T15:42:07.998Z,32.73
2023-05-12T15:44:35.378Z,32.61
2023-05-12T15:47:02.280Z,32.80
2023-05-12T15:49:29.164Z,32.97
2023-05-12T15:51:55.921Z,33.14
2023-05-12T15:54:26.466Z,33.87
2023-05-12T15:56:53.269Z,33.73
2023-05-12T15:59:20.188Z,33.54
2023-05-12T16:01:47.440Z,33.76
2023-05-12T16:04:14.384Z,33.08
2023-05-12T16:06:41.215Z,32.86
2023-05-12T16:09:08.002Z,32.22
2023-05-12T16:11:34.771Z,32.22
2023-05-12T16:14:02.601Z,32.89
2023-05-12T16:16:30.337Z,32.45
2023-05-12T16:18:57.233Z,32.82
2023-05-12T16:21:24.072Z,33.03
2023-05-12T16:23:50.963Z,32.75
2023-05-12T16:26:19.279Z,33.10
2023-05-12T16:28:46.368Z,33.13
2023-05-12T16:31:17.687Z,33.21
2023-05-12T16:33:44.642Z,32.76
2023-05-12T16:36:11.478Z,33.01
2023-05-12T16:38:38.452Z,32.73
2023-05-12T16:41:05.338Z,32.78
2023-05-12T16:43:32.187Z,32.27
2023-05-12T16:46:04.031Z,32.68
2023-05-12T16:48:34.390Z,32.21
2023-05-12T16:51:06.988Z,32.43
2023-05-12T16:53:34.742Z,31.96
2023-05-12T16:56:01.753Z,32.36
2023-05-12T16:58:32.550Z,32.79
2023-05-12T17:01:01.049Z,31.64
2023-05-12T17:03:29.371Z,32.31
2023-05-12T17:05:56.299Z,32.71
2023-05-12T17:08:23.211Z,32.26
2023-05-12T17:10:51.177Z,32.05
2023-05-12T17:13:17.929Z,31.81
2023-05-12T17:15:47.108Z,32.69
2023-05-12T17:18:14.128Z,32.76
2023-05-12T17:20:40.925Z,32.71
2023-05-12T17:23:08.177Z,32.74
2023-05-12T17:25:36.591Z,32.40
2023-05-12T17:28:04.373Z,31.87
2023-05-12T17:30:31.179Z,32.00
2023-05-12T17:32:58.666Z,32.66
2023-05-12T17:35:25.585Z,32.58
2023-05-12T17:37:55.143Z,31.86
2023-05-12T17:40:22.636Z,31.96
2023-05-12T17:42:50.188Z,32.33
2023-05-12T17:45:17.971Z,31.88
2023-05-12T17:47:45.722Z,32.53
2023-05-12T17:50:14.818Z,32.49
2023-05-12T17:52:43.425Z,32.65
2023-05-12T17:55:10.716Z,32.67
2023-05-12T17:57:37.941Z,33.29
2023-05-12T18:00:10.303Z,33.20
2023-05-12T18:02:38.548Z,32.68
2023-05-12T18:05:06.152Z,33.02
2023-05-12T18:07:33.593Z,33.44
2023-05-12T18:10:00.910Z,32.87
2023-05-12T18:12:27.838Z,32.87
2023-05-12T18:14:54.686Z,33.31
2023-05-12T18:17:21.580Z,33.13
2023-05-12T18:19:48.450Z,32.76
2023-05-12T18:22:16.705Z,33.32
2023-05-12T18:24:43.589Z,33.42
2023-05-12T18:27:10.425Z,33.58
2023-05-12T18:29:37.322Z,33.59
2023-05-12T18:32:04.289Z,33.67
2023-05-12T18:34:31.127Z,33.48
2023-05-12T18:36:57.926Z,33.48
2023-05-12T18:39:25.001Z,33.30
2023-05-12T18:41:51.925Z,33.55
2023-05-12T18:44:18.788Z,33.43
2023-05-12T18:46:45.581Z,33.79
2023-05-12T18:49:12.418Z,34.66
2023-05-12T18:51:39.208Z,34.94
2023-05-12T18:54:06.037Z,35.50
2023-05-12T18:56:32.971Z,35.39
2023-05-12T18:59:00.019Z,35.21
2023-05-12T19:01:27.679Z,35.87
2023-05-12T19:03:54.653Z,35.67
2023-05-12T19:06:21.535Z,35.52
2023-05-12T19:08:48.304Z,35.14
2023-05-12T19:11:15.103Z,35.32
2023-05-12T19:13:45.122Z,35.56
2023-05-12T19:16:12.042Z,35.62
2023-05-12T19:18:38.956Z,35.43
2023-05-12T19:21:05.939Z,35.38
2023-05-12T19:23:32.763Z,35.25
2023-05-12T19:25:59.609Z,35.46
2023-05-12T19:28:26.412Z,35.62
2023-05-12T19:30:54.840Z,35.95
2023-05-12T19:33:22.021Z,36.27
2023-05-12T19:35:48.873Z,37.17
2023-05-12T19:38:15.680Z,37.43
2023-05-12T19:40:42.550Z,37.58
2023-05-12T19:43:10.563Z,37.70
2023-05-12T19:45:37.449Z,37.47
2023-05-12T19:48:04.725Z,37.80
2023-05-12T19:50:31.918Z,38.11
2023-05-12T19:52:58.688Z,38.53
2023-05-12T19:55:25.734Z,38.83
2023-05-12T19:57:52.506Z,39.00
2023-05-12T20:00:21.973Z,39.35
2023-05-12T20:02:49.167Z,39.54
2023-05-12T20:05:16.027Z,39.61
2023-05-12T20:10:09.853Z,39.46
2023-05-12T20:12:36.635Z,39.33
2023-05-12T20:15:03.668Z,39.70
2023-05-12T20:17:30.562Z,39.72
2023-05-12T20:19:57.334Z,40.06
2023-05-12T20:22:24.145Z,40.15
2023-05-12T20:24:51.262Z,40.29
2023-05-12T20:27:18.162Z,40.14
2023-05-12T20:29:44.960Z,40.34
2023-05-12T20:32:14.176Z,40.62
2023-05-12T20:34:41.207Z,40.76
2023-05-12T20:37:08.048Z,40.55
2023-05-12T20:39:34.850Z,40.29
2023-05-12T20:42:01.834Z,40.64
2023-05-12T20:44:28.644Z,40.63
2023-05-12T20:46:56.156Z,41.07
2023-05-12T20:49:25.740Z,40.80
2023-05-12T20:51:52.640Z,40.86
2023-05-12T20:54:19.475Z,40.65
2023-05-12T20:56:46.325Z,40.87
2023-05-12T20:59:13.635Z,41.05
2023-05-12T21:01:40.479Z,41.36
2023-05-12T21:04:07.576Z,41.22
2023-05-12T21:06:35.856Z,40.99
2023-05-12T21:09:04.939Z,40.86
2023-05-12T21:11:31.780Z,41.63
2023-05-12T21:13:58.555Z,41.15
2023-05-12T21:16:25.392Z,41.04
2023-05-12T21:18:52.190Z,41.64
2023-05-12T21:21:19.055Z,41.59
2023-05-12T21:23:46.198Z,41.88
2023-05-12T21:26:13.122Z,42.23
2023-05-12T21:28:39.921Z,42.20
2023-05-12T21:31:06.849Z,41.85
2023-05-12T21:33:33.673Z,42.13
2023-05-12T21:36:00.520Z,42.19
2023-05-12T21:38:27.328Z,42.08
2023-05-12T21:40:57.980Z,42.09
2023-05-12T21:43:24.797Z,42.15
2023-05-12T21:45:52.383Z,42.41
2023-05-12T21:48:19.271Z,42.08
2023-05-12T21:50:56.995Z,42.32
2023-05-12T21:53:23.764Z,42.44
2023-05-12T21:55:50.590Z,42.39
2023-05-12T21:58:18.318Z,42.16
2023-05-12T22:00:45.267Z,42.26
2023-05-12T22:03:12.381Z,42.64
2023-05-12T22:05:39.312Z,42.71
2023-05-12T22:08:06.258Z,42.43
2023-05-12T22:10:33.077Z,42.87
2023-05-12T22:12:59.887Z,42.98
2023-05-12T22:15:26.695Z,43.01
2023-05-12T22:17:53.786Z,42.76
2023-05-12T22:20:23.030Z,43.24
2023-05-12T22:22:52.430Z,43.38
2023-05-12T22:25:19.216Z,43.41
2023-05-12T22:27:45.986Z,43.53
2023-05-12T22:30:13.434Z,43.20
2023-05-12T22:32:42.461Z,43.18
2023-05-12T22:35:09.423Z,43.35
2023-05-12T22:37:36.514Z,43.19
2023-05-12T22:40:03.829Z,42.41
2023-05-12T22:42:30.625Z,43.31
2023-05-12T22:44:58.258Z,43.04
2023-05-12T22:47:27.993Z,43.41
2023-05-12T22:49:54.803Z,43.52
2023-05-12T22:52:21.568Z,43.57
2023-05-12T22:54:53.695Z,43.73
2023-05-12T22:57:24.936Z,43.86
2023-05-12T22:59:51.709Z,43.27
2023-05-12T23:02:18.573Z,43.88
2023-05-12T23:04:45.541Z,43.70
2023-05-12T23:07:12.471Z,43.44
2023-05-12T23:09:39.666Z,43.38
2023-05-12T23:12:07.068Z,43.36
2023-05-12T23:14:33.944Z,43.99
2023-05-12T23:17:00.912Z,43.18
2023-05-12T23:19:27.954Z,42.82
2023-05-12T23:21:54.729Z,42.83
2023-05-12T23:24:21.633Z,43.12
2023-05-12T23:26:48.436Z,42.79
2023-05-12T23:29:15.232Z,42.76
2023-05-12T23:31:42.015Z,42.47
2023-05-12T23:34:08.822Z,42.32
2023-05-12T23:36:35.704Z,42.47
2023-05-12T23:39:02.536Z,41.98
2023-05-12T23:41:31.580Z,42.24
2023-05-12T23:43:58.738Z,42.34
2023-05-12T23:46:26.119Z,41.99
2023-05-12T23:48:55.255Z,42.30
2023-05-12T23:51:22.891Z,42.19
2023-05-12T23:53:52.696Z,42.45
2023-05-12T23:56:20.068Z,42.65
2023-05-12T23:58:47.492Z,42.32
